Silver Sailing — VRIH8 — position and weather

sailwx.info

Track history (hours):
 
Tides and Currents Weather Stations Pressure Air Temp Water Temp Dewpoint Dewpoint Depression Visibility Wind Speed Wind Dir Waves Ship Positions

Silver Sailing

Last reported at 2018-Jun-16 11:18 UTC. Time now 2018-Jun-24 16:25 UTC.
Position N 34°24' E 134°14'.
Warning: this ship's position is 8 days out of date.

Length 110 m; draft 6.2 m.

Type: Cargo ship. MMSI: 477861300.

Date/timePositionNaut miles runAvg speedWind from/ knotsBaromVisibWave heightAir tempDewpointWater temp
2018-Jun-16 11:18N 34°24' E 134°14'411.5
2018-Jun-16 10:55N 34°24' E 134°19'410.0
2018-Jun-16 10:30N 34°25' E 134°24'510.0
2018-Jun-16 10:00N 34°28' E 134°29'5 9.9
2018-Jun-16 09:30N 34°29' E 134°35'5 9.9
2018-Jun-16 09:00N 34°31' E 134°40'5 9.6
2018-Jun-16 08:30N 34°33' E 134°46'5 8.6
2018-Jun-16 07:56N 34°35' E 134°51'3 7.3
2018-Jun-16 07:30N 34°36' E 134°55'4 7.1
2018-Jun-16 07:00N 34°37' E 134°59'3 5.0
2018-Jun-16 06:24N 34°37' E 135°02'2 5.2
2018-Jun-16 06:00N 34°35' E 135°04'4 7.7
2018-Jun-16 05:30N 34°32' E 135°05'5 9.7
2018-Jun-16 05:00N 34°27' E 135°03'5 9.1
2018-Jun-16 04:30N 34°23' E 135°01'4 8.7
2018-Jun-16 04:00N 34°19' E 134°59'4 8.0
2018-Jun-16 03:30N 34°15' E 134°59'4 8.1
2018-Jun-16 03:00N 34°12' E 135°03'5 9.4
2018-Jun-16 02:30N 34°10' E 135°08'3 6.1
2018-Jun-16 01:58N 34°09' E 135°12'0 0.1
2018-Jun-16 01:27N 34°09' E 135°12'0 0.0
2018-Jun-15 23:06N 34°09' E 135°12'0 0.0
2018-Jun-15 23:00N 34°09' E 135°12'0 0.0
2018-Jun-15 22:24N 34°09' E 135°12'0 0.0
2018-Jun-15 21:54N 34°09' E 135°12'0 0.0
2018-Jun-15 21:18N 34°09' E 135°12'0 0.0
2018-Jun-15 20:36N 34°09' E 135°12'0 0.0
2018-Jun-15 20:24N 34°09' E 135°12'0 0.0
2018-Jun-15 19:48N 34°09' E 135°12'0 0.0
2018-Jun-15 19:30N 34°09' E 135°12'0 0.0
2018-Jun-15 18:42N 34°09' E 135°12'0 0.0
2018-Jun-15 18:18N 34°09' E 135°12'0 0.0
2018-Jun-15 17:30N 34°09' E 135°12'0 0.0
2018-Jun-15 16:54N 34°09' E 135°12'0 0.0
2018-Jun-15 16:30N 34°09' E 135°12'0 0.0
2018-Jun-15 16:00N 34°09' E 135°12'0 0.0
2018-Jun-15 15:12N 34°09' E 135°12'0 0.0
2018-Jun-15 14:06N 34°09' E 135°12'0 0.0
2018-Jun-15 10:00N 34°09' E 135°12'0 0.0
2018-Jun-15 08:39N 34°09' E 135°12'0 0.0
2018-Jun-15 08:12N 34°09' E 135°12'0 0.0
2018-Jun-15 06:21N 34°09' E 135°12'0 0.0
2018-Jun-14 22:42N 34°09' E 135°12'0 0.0
2018-Jun-14 22:30N 34°09' E 135°12'0 0.0
2018-Jun-14 22:00N 34°09' E 135°12'0 0.0
2018-Jun-14 10:48N 34°09' E 135°12'0 0.0
2018-Jun-14 07:45N 34°09' E 135°12'0 0.0
2018-Jun-14 05:09N 34°09' E 135°12'0 0.0
2018-Jun-14 04:48N 34°09' E 135°12'0 0.0
2018-Jun-14 02:33N 34°09' E 135°12'0 0.0
2018-Jun-13 23:27N 34°09' E 135°12'0 0.0
2018-Jun-13 22:12N 34°09' E 135°12'0 0.0
2018-Jun-13 22:00N 34°09' E 135°12'0 0.0
2018-Jun-13 20:42N 34°09' E 135°12'0 0.0
2018-Jun-13 20:24N 34°09' E 135°12'0 0.0
2018-Jun-13 19:54N 34°09' E 135°12'0 0.0
2018-Jun-13 19:30N 34°09' E 135°12'0 0.0
2018-Jun-13 18:12N 34°09' E 135°12'0 0.0
2018-Jun-13 18:00N 34°09' E 135°12'0 0.0
2018-Jun-13 17:18N 34°09' E 135°12'0 0.0
2018-Jun-13 17:00N 34°09' E 135°12'0 0.0
2018-Jun-13 16:24N 34°09' E 135°12'0 0.0
2018-Jun-13 15:48N 34°09' E 135°12'0 0.0
2018-Jun-13 15:06N 34°09' E 135°12'0 0.0
2018-Jun-13 15:00N 34°09' E 135°12'0 0.0
2018-Jun-13 09:59N 34°09' E 135°12'0 0.2
2018-Jun-13 09:30N 34°09' E 135°11'1 1.8
2018-Jun-13 09:00N 34°09' E 135°10'3 6.4
2018-Jun-13 08:30N 34°11' E 135°07'4 7.3
2018-Jun-13 08:00N 34°14' E 135°05'2 4.3
2018-Jun-13 07:30N 34°14' E 135°08'0 0.0
2018-Jun-13 06:58N 34°14' E 135°08'0 0.0
2018-Jun-13 06:28N 34°14' E 135°08'0 0.0
2018-Jun-13 05:58N 34°14' E 135°08'0 0.0
2018-Jun-13 05:28N 34°14' E 135°08'0 0.0
2018-Jun-13 04:52N 34°14' E 135°08'0 0.0
2018-Jun-13 04:22N 34°14' E 135°08'0 0.0
2018-Jun-13 03:58N 34°14' E 135°08'0 0.0
2018-Jun-13 03:28N 34°14' E 135°08'0 0.0
2018-Jun-13 02:58N 34°14' E 135°08'0 0.0
2018-Jun-13 02:28N 34°14' E 135°08'0 0.0
2018-Jun-13 01:58N 34°14' E 135°08'0 0.0
2018-Jun-13 01:28N 34°14' E 135°08'0 0.0
2018-Jun-13 00:58N 34°14' E 135°08'0 0.0
2018-Jun-13 00:28N 34°14' E 135°08'0 0.0
2018-Jun-12 23:52N 34°14' E 135°08'0 0.0
2018-Jun-12 23:28N 34°14' E 135°08'0 0.0
2018-Jun-12 22:58N 34°14' E 135°08'0 0.0
2018-Jun-12 22:25N 34°14' E 135°08'0 0.0
2018-Jun-12 21:58N 34°14' E 135°08'0 0.0
2018-Jun-12 21:28N 34°14' E 135°08'0 0.0
2018-Jun-12 20:58N 34°14' E 135°08'0 0.0
2018-Jun-12 20:28N 34°14' E 135°08'0 0.0
2018-Jun-12 19:58N 34°14' E 135°08'0 0.0
2018-Jun-12 19:28N 34°14' E 135°08'0 0.0
2018-Jun-12 18:58N 34°14' E 135°08'0 0.0
2018-Jun-12 18:28N 34°14' E 135°08'0 0.0
2018-Jun-12 17:55N 34°14' E 135°08'0 0.0
2018-Jun-12 17:07N 34°14' E 135°08'0 0.0
2018-Jun-12 16:58N 34°14' E 135°08'0 0.0
2018-Jun-12 16:28N 34°14' E 135°08'0 0.0
2018-Jun-12 15:55N 34°14' E 135°08'0 0.0
2018-Jun-12 15:25N 34°14' E 135°08'0 0.0
2018-Jun-12 14:49N 34°14' E 135°08'0 0.0
2018-Jun-12 14:28N 34°14' E 135°08'0 0.0
2018-Jun-12 13:58N 34°14' E 135°08'0 0.0
2018-Jun-12 13:22N 34°14' E 135°08'0 0.0
2018-Jun-12 12:58N 34°14' E 135°08'0 0.0
2018-Jun-12 12:16N 34°14' E 135°08'0 0.0
2018-Jun-12 11:58N 34°14' E 135°08'0 0.0
2018-Jun-12 11:28N 34°14' E 135°08'0 0.0
2018-Jun-12 10:58N 34°14' E 135°08'0 0.0
2018-Jun-12 10:28N 34°14' E 135°08'0 0.0
2018-Jun-12 09:58N 34°14' E 135°08'0 0.0
2018-Jun-12 09:28N 34°14' E 135°08'0 0.0
2018-Jun-12 08:58N 34°14' E 135°08'0 0.0
2018-Jun-12 08:28N 34°14' E 135°08'0 0.0
2018-Jun-12 07:58N 34°14' E 135°08'0 0.0
2018-Jun-12 07:28N 34°14' E 135°08'0 0.0
2018-Jun-12 06:58N 34°14' E 135°08'0 0.0
2018-Jun-12 06:28N 34°14' E 135°08'0 0.0
2018-Jun-12 05:58N 34°14' E 135°08'0 0.0
2018-Jun-12 05:28N 34°14' E 135°08'0 0.0
2018-Jun-12 04:58N 34°14' E 135°08'0 0.0
2018-Jun-12 04:28N 34°14' E 135°08'0 0.0
2018-Jun-12 03:55N 34°14' E 135°08'0 0.0
2018-Jun-12 03:22N 34°14' E 135°08'0 0.0
2018-Jun-12 02:58N 34°14' E 135°08'0 0.0
2018-Jun-12 02:28N 34°14' E 135°08'0 0.0
2018-Jun-12 01:58N 34°14' E 135°08'0 0.0
2018-Jun-12 01:28N 34°14' E 135°08'0 0.0
2018-Jun-12 00:58N 34°14' E 135°08'0 0.0
2018-Jun-12 00:28N 34°14' E 135°08'0 0.0
2018-Jun-11 23:58N 34°14' E 135°08'0 0.0
2018-Jun-11 23:28N 34°14' E 135°08'0 0.0
2018-Jun-11 22:58N 34°14' E 135°08'0 0.0
2018-Jun-11 22:28N 34°14' E 135°08'0 0.0
2018-Jun-11 21:58N 34°14' E 135°08'0 0.0
2018-Jun-11 21:28N 34°14' E 135°08'0 0.0
2018-Jun-11 20:58N 34°14' E 135°08'0 0.0
2018-Jun-11 20:28N 34°14' E 135°08'0 0.0
2018-Jun-11 19:58N 34°14' E 135°08'0 0.0
2018-Jun-11 19:28N 34°14' E 135°08'0 0.0
2018-Jun-11 18:58N 34°14' E 135°08'0 0.0
2018-Jun-11 18:28N 34°14' E 135°08'0 0.0
2018-Jun-11 17:58N 34°14' E 135°08'0 0.0
2018-Jun-11 17:28N 34°14' E 135°08'0 0.0
2018-Jun-11 16:58N 34°14' E 135°08'0 0.0
2018-Jun-11 16:28N 34°14' E 135°08'0 0.0
2018-Jun-11 15:58N 34°14' E 135°08'0 0.0
2018-Jun-11 15:28N 34°14' E 135°08'0 0.0
2018-Jun-11 14:58N 34°14' E 135°08'0 0.0
2018-Jun-11 14:28N 34°14' E 135°08'0 0.0
2018-Jun-11 13:55N 34°14' E 135°08'0 0.0
2018-Jun-11 13:28N 34°14' E 135°08'0 0.0
2018-Jun-11 12:58N 34°14' E 135°08'0 0.0
2018-Jun-11 12:28N 34°14' E 135°08'0 0.0
2018-Jun-11 11:58N 34°14' E 135°08'0 0.0
2018-Jun-11 11:28N 34°14' E 135°08'0 0.0
2018-Jun-11 10:58N 34°14' E 135°08'0 0.0
2018-Jun-11 10:25N 34°14' E 135°08'0 0.0
2018-Jun-11 09:58N 34°14' E 135°08'0 0.0
2018-Jun-11 09:28N 34°14' E 135°08'0 0.0
2018-Jun-11 08:58N 34°14' E 135°08'0 0.0
2018-Jun-11 08:28N 34°14' E 135°08'0 0.0
2018-Jun-11 07:58N 34°14' E 135°08'0 0.0
2018-Jun-11 07:28N 34°14' E 135°08'0 0.0
2018-Jun-11 06:58N 34°14' E 135°08'0 0.0
2018-Jun-11 06:25N 34°14' E 135°08'0 0.0
2018-Jun-11 05:58N 34°14' E 135°08'0 0.0
2018-Jun-11 05:28N 34°14' E 135°08'0 0.0
2018-Jun-11 04:58N 34°14' E 135°08'0 0.0
2018-Jun-11 04:22N 34°14' E 135°08'0 0.0
2018-Jun-11 03:58N 34°14' E 135°08'0 0.0
2018-Jun-11 03:25N 34°14' E 135°08'0 0.0
2018-Jun-11 02:52N 34°14' E 135°08'0 0.0
2018-Jun-11 02:28N 34°14' E 135°08'0 0.0
2018-Jun-11 01:58N 34°14' E 135°08'0 0.0
2018-Jun-11 01:28N 34°14' E 135°08'0 0.0
2018-Jun-11 00:58N 34°14' E 135°08'0 0.0
2018-Jun-11 00:28N 34°14' E 135°08'0 0.0
2018-Jun-10 23:58N 34°14' E 135°08'0 0.0
2018-Jun-10 23:28N 34°14' E 135°08'0 0.0
2018-Jun-10 22:58N 34°14' E 135°08'0 0.0
2018-Jun-10 22:28N 34°14' E 135°08'0 0.0
2018-Jun-10 21:58N 34°14' E 135°08'0 0.0
2018-Jun-10 21:28N 34°14' E 135°08'0 0.0
2018-Jun-10 20:58N 34°14' E 135°08'0 0.0
2018-Jun-10 20:28N 34°14' E 135°08'0 0.0
2018-Jun-10 19:58N 34°14' E 135°08'0 0.0
2018-Jun-10 19:28N 34°14' E 135°08'0 0.0
2018-Jun-10 18:55N 34°14' E 135°08'0 0.0
2018-Jun-10 18:28N 34°14' E 135°08'0 0.0
2018-Jun-10 17:58N 34°14' E 135°08'0 0.0
2018-Jun-10 17:28N 34°14' E 135°08'0 0.0
2018-Jun-10 16:58N 34°14' E 135°08'0 0.0
2018-Jun-10 16:28N 34°14' E 135°08'0 0.0
2018-Jun-10 15:58N 34°14' E 135°08'0 0.0
2018-Jun-10 15:28N 34°14' E 135°08'0 0.0
2018-Jun-10 14:58N 34°14' E 135°08'0 0.0
2018-Jun-10 13:58N 34°14' E 135°08'0 0.0
2018-Jun-10 13:28N 34°14' E 135°08'0 0.0
2018-Jun-10 12:58N 34°14' E 135°08'0 0.0
2018-Jun-10 12:28N 34°14' E 135°08'0 0.0
2018-Jun-10 11:58N 34°14' E 135°08'0 0.0
2018-Jun-10 11:28N 34°14' E 135°08'0 0.0
2018-Jun-10 10:58N 34°14' E 135°08'0 0.0
2018-Jun-10 10:28N 34°14' E 135°08'0 0.0
2018-Jun-10 09:58N 34°14' E 135°08'0 0.0
2018-Jun-10 09:28N 34°14' E 135°08'0 0.0
2018-Jun-10 08:58N 34°14' E 135°08'0 0.0
2018-Jun-10 08:28N 34°14' E 135°08'0 0.0
2018-Jun-10 07:58N 34°14' E 135°08'0 0.0
2018-Jun-10 07:28N 34°14' E 135°08'0 0.0
2018-Jun-10 06:58N 34°14' E 135°08'0 0.0
2018-Jun-10 06:28N 34°14' E 135°08'0 0.0
2018-Jun-10 05:58N 34°14' E 135°08'0 0.0
2018-Jun-10 05:28N 34°14' E 135°08'0 0.0
2018-Jun-10 04:58N 34°14' E 135°08'0 0.0
2018-Jun-10 04:28N 34°14' E 135°08'0 0.0
2018-Jun-10 03:58N 34°14' E 135°08'0 0.0
2018-Jun-10 03:28N 34°14' E 135°08'0 0.0
2018-Jun-10 02:58N 34°14' E 135°08'0 0.0
2018-Jun-10 02:28N 34°14' E 135°08'0 0.0
2018-Jun-10 01:58N 34°14' E 135°08'0 0.0
2018-Jun-10 01:28N 34°14' E 135°08'0 0.0
2018-Jun-10 00:58N 34°14' E 135°08'0 0.0
2018-Jun-10 00:28N 34°14' E 135°08'0 0.0
2018-Jun-09 23:58N 34°14' E 135°08'0 0.0
2018-Jun-09 23:28N 34°14' E 135°08'0 0.0
2018-Jun-09 22:58N 34°14' E 135°08'0 0.0
2018-Jun-09 22:28N 34°14' E 135°08'0 0.0
2018-Jun-09 21:58N 34°14' E 135°08'0 0.0
2018-Jun-09 21:28N 34°14' E 135°08'0 0.0
2018-Jun-09 20:58N 34°14' E 135°08'0 0.0
2018-Jun-09 20:28N 34°14' E 135°08'0 0.0
2018-Jun-09 19:58N 34°14' E 135°08'0 0.0
2018-Jun-09 19:28N 34°14' E 135°08'0 0.0
2018-Jun-09 18:58N 34°14' E 135°08'0 0.0
2018-Jun-09 18:28N 34°14' E 135°08'0 0.0
2018-Jun-09 17:58N 34°14' E 135°08'0 0.0
2018-Jun-09 17:28N 34°14' E 135°08'0 0.0
2018-Jun-09 16:58N 34°14' E 135°08'0 0.0
2018-Jun-09 16:28N 34°14' E 135°08'0 0.0
2018-Jun-09 15:58N 34°14' E 135°08'0 0.0
2018-Jun-09 14:58N 34°14' E 135°08'0 0.0
2018-Jun-09 14:28N 34°14' E 135°08'0 0.0
2018-Jun-09 13:58N 34°14' E 135°08'0 0.0
2018-Jun-09 13:28N 34°14' E 135°08'0 0.0
2018-Jun-09 12:55N 34°14' E 135°08'0 0.0
2018-Jun-09 12:28N 34°14' E 135°08'0 0.0
2018-Jun-09 11:58N 34°14' E 135°08'0 0.0
2018-Jun-09 11:28N 34°14' E 135°08'0 0.0
2018-Jun-09 10:52N 34°14' E 135°08'0 0.0
2018-Jun-09 10:28N 34°14' E 135°08'0 0.0
2018-Jun-09 09:52N 34°14' E 135°08'0 0.0
2018-Jun-09 09:28N 34°14' E 135°08'0 0.0
2018-Jun-09 08:58N 34°14' E 135°08'0 0.0
2018-Jun-09 08:28N 34°14' E 135°08'0 0.0
2018-Jun-09 07:58N 34°14' E 135°08'0 0.0
2018-Jun-09 07:10N 34°14' E 135°08'0 0.0
2018-Jun-09 06:58N 34°14' E 135°08'0 0.0
2018-Jun-09 06:22N 34°14' E 135°08'0 0.0
2018-Jun-09 05:58N 34°14' E 135°08'0 0.0
2018-Jun-09 05:16N 34°14' E 135°08'0 0.0
2018-Jun-09 04:55N 34°14' E 135°08'0 0.0
2018-Jun-09 04:25N 34°14' E 135°08'0 0.0
2018-Jun-09 03:58N 34°14' E 135°08'0 0.0
2018-Jun-09 03:28N 34°14' E 135°08'0 0.0
2018-Jun-09 02:58N 34°14' E 135°08'0 0.0
2018-Jun-09 02:22N 34°14' E 135°08'0 0.0
2018-Jun-09 01:55N 34°14' E 135°08'0 0.0
2018-Jun-09 01:28N 34°14' E 135°08'0 0.0
2018-Jun-09 00:58N 34°14' E 135°08'0 0.0
2018-Jun-09 00:28N 34°14' E 135°08'0 0.0
2018-Jun-08 23:58N 34°14' E 135°08'0 0.0
2018-Jun-08 23:28N 34°14' E 135°08'0 0.0
2018-Jun-08 22:58N 34°14' E 135°08'0 0.0
2018-Jun-08 22:28N 34°14' E 135°08'0 0.0
2018-Jun-08 21:58N 34°14' E 135°08'0 0.0
2018-Jun-08 21:28N 34°14' E 135°08'0 0.0
2018-Jun-08 20:55N 34°14' E 135°08'0 0.0
2018-Jun-08 20:28N 34°14' E 135°08'0 0.0
2018-Jun-08 19:58N 34°14' E 135°08'0 0.0
2018-Jun-08 19:28N 34°14' E 135°08'0 0.0
2018-Jun-08 18:28N 34°14' E 135°08'0 0.0
2018-Jun-08 17:46N 34°14' E 135°08'0 0.0
2018-Jun-08 17:22N 34°14' E 135°08'0 0.0
2018-Jun-08 16:58N 34°14' E 135°08'0 0.0
2018-Jun-08 16:28N 34°14' E 135°08'0 0.0
2018-Jun-08 15:52N 34°14' E 135°08'0 0.0
2018-Jun-08 15:28N 34°14' E 135°08'0 0.0
2018-Jun-08 14:58N 34°14' E 135°08'0 0.0
2018-Jun-08 14:25N 34°14' E 135°08'0 0.0
2018-Jun-08 13:58N 34°14' E 135°08'0 0.0
2018-Jun-08 13:28N 34°14' E 135°08'0 0.0
2018-Jun-08 12:55N 34°14' E 135°08'0 0.0
2018-Jun-08 12:28N 34°14' E 135°08'0 0.0
2018-Jun-08 11:58N 34°14' E 135°08'0 0.0
2018-Jun-08 11:28N 34°14' E 135°08'0 0.0
2018-Jun-08 10:58N 34°14' E 135°08'0 0.0
2018-Jun-08 10:28N 34°14' E 135°08'0 0.0
2018-Jun-08 09:58N 34°14' E 135°08'0 0.0
2018-Jun-08 09:28N 34°14' E 135°08'0 0.0
2018-Jun-08 08:58N 34°14' E 135°08'0 0.0
2018-Jun-08 08:28N 34°14' E 135°08'0 0.0
2018-Jun-08 07:58N 34°14' E 135°08'0 0.0
2018-Jun-08 07:28N 34°14' E 135°08'0 0.0
2018-Jun-08 06:58N 34°14' E 135°08'0 0.0
2018-Jun-08 06:28N 34°14' E 135°08'0 0.0
2018-Jun-08 05:58N 34°14' E 135°08'0 0.0
2018-Jun-08 05:28N 34°14' E 135°08'0 0.0
2018-Jun-08 04:58N 34°14' E 135°08'0 0.0
2018-Jun-08 04:28N 34°14' E 135°08'0 0.0
2018-Jun-08 03:58N 34°14' E 135°08'0 0.0
2018-Jun-08 03:25N 34°14' E 135°08'0 0.0
2018-Jun-08 02:55N 34°14' E 135°08'0 0.0
2018-Jun-08 02:28N 34°14' E 135°08'0 0.0
2018-Jun-08 01:58N 34°14' E 135°08'0 0.0
2018-Jun-08 01:28N 34°14' E 135°08'0 0.0
2018-Jun-08 00:58N 34°14' E 135°08'0 0.0
2018-Jun-08 00:28N 34°14' E 135°08'0 0.0
2018-Jun-07 23:58N 34°14' E 135°08'0 0.0
2018-Jun-07 23:28N 34°14' E 135°08'0 0.0
2018-Jun-07 22:58N 34°14' E 135°08'0 0.0
2018-Jun-07 22:28N 34°14' E 135°08'0 0.0
2018-Jun-07 21:58N 34°14' E 135°08'0 0.0
2018-Jun-07 21:28N 34°14' E 135°08'0 0.0
2018-Jun-07 20:58N 34°14' E 135°08'0 0.0
2018-Jun-07 20:28N 34°14' E 135°08'0 0.0
2018-Jun-07 19:58N 34°14' E 135°08'0 0.0
2018-Jun-07 19:28N 34°14' E 135°08'0 0.0
2018-Jun-07 18:58N 34°14' E 135°08'0 0.0
2018-Jun-07 18:28N 34°14' E 135°08'0 0.0
2018-Jun-07 17:58N 34°14' E 135°08'0 0.0
2018-Jun-07 17:28N 34°14' E 135°08'0 0.0
2018-Jun-07 16:58N 34°14' E 135°08'0 0.0
2018-Jun-07 16:28N 34°14' E 135°08'0 0.0
2018-Jun-07 15:58N 34°14' E 135°08'0 0.0
2018-Jun-07 15:28N 34°14' E 135°08'0 0.0
2018-Jun-07 14:58N 34°14' E 135°08'0 0.0
2018-Jun-07 14:28N 34°14' E 135°08'0 0.0
2018-Jun-07 13:58N 34°14' E 135°08'0 0.0
2018-Jun-07 13:28N 34°14' E 135°08'0 0.0
2018-Jun-07 12:58N 34°14' E 135°08'0 0.0
2018-Jun-07 12:28N 34°14' E 135°08'0 0.0
2018-Jun-07 11:58N 34°14' E 135°08'0 0.0
2018-Jun-07 11:28N 34°14' E 135°08'0 0.0
2018-Jun-07 10:58N 34°14' E 135°08'0 0.0
2018-Jun-07 10:28N 34°14' E 135°08'0 0.0
2018-Jun-07 09:58N 34°14' E 135°08'0 0.0
2018-Jun-07 09:28N 34°14' E 135°08'0 0.0
2018-Jun-07 08:58N 34°14' E 135°08'0 0.0
2018-Jun-07 08:28N 34°14' E 135°08'0 0.0
2018-Jun-07 07:58N 34°14' E 135°08'0 0.0
2018-Jun-07 07:28N 34°14' E 135°08'0 0.0
2018-Jun-07 06:58N 34°14' E 135°08'0 0.0
2018-Jun-07 06:28N 34°14' E 135°08'0 0.0
2018-Jun-07 05:58N 34°14' E 135°08'0 0.0
2018-Jun-07 05:28N 34°14' E 135°08'0 0.0
2018-Jun-07 04:58N 34°14' E 135°08'0 0.0
2018-Jun-07 04:28N 34°14' E 135°08'0 0.0
2018-Jun-07 03:58N 34°14' E 135°08'0 0.0
2018-Jun-07 03:28N 34°14' E 135°08'0 0.0
2018-Jun-07 02:58N 34°14' E 135°08'0 0.0
2018-Jun-07 02:28N 34°14' E 135°08'0 0.0
2018-Jun-07 01:58N 34°14' E 135°08'0 0.0
2018-Jun-07 01:28N 34°14' E 135°08'0 0.0
2018-Jun-07 00:58N 34°14' E 135°08'0 0.0
2018-Jun-07 00:28N 34°14' E 135°08'0 0.0
2018-Jun-06 23:58N 34°14' E 135°08'0 0.0
2018-Jun-06 23:28N 34°14' E 135°08'0 0.0
2018-Jun-06 22:58N 34°14' E 135°08'0 0.0
2018-Jun-06 22:22N 34°14' E 135°08'0 0.0
2018-Jun-06 21:58N 34°14' E 135°08'0 0.0
2018-Jun-06 21:28N 34°14' E 135°08'0 0.0
2018-Jun-06 20:58N 34°14' E 135°08'0 0.0
2018-Jun-06 20:28N 34°14' E 135°08'0 0.0
2018-Jun-06 19:58N 34°14' E 135°08'0 0.0
2018-Jun-06 19:28N 34°14' E 135°08'0 0.0
2018-Jun-06 18:58N 34°14' E 135°08'0 0.0
2018-Jun-06 18:28N 34°14' E 135°08'0 0.0
2018-Jun-06 17:58N 34°14' E 135°08'0 0.0
2018-Jun-06 17:28N 34°14' E 135°08'0 0.0
2018-Jun-06 16:58N 34°14' E 135°08'0 0.0
2018-Jun-06 16:28N 34°14' E 135°08'0 0.0
2018-Jun-06 15:58N 34°14' E 135°08'0 0.0
2018-Jun-06 15:28N 34°14' E 135°08'0 0.0
2018-Jun-06 14:58N 34°14' E 135°08'0 0.0
2018-Jun-06 14:28N 34°14' E 135°08'0 0.0
2018-Jun-06 13:58N 34°14' E 135°08'0 0.0
2018-Jun-06 13:28N 34°14' E 135°08'0 0.0
2018-Jun-06 12:58N 34°14' E 135°08'0 0.0
2018-Jun-06 12:28N 34°14' E 135°08'0 0.0
2018-Jun-06 11:58N 34°14' E 135°08'0 0.0
2018-Jun-06 11:28N 34°14' E 135°08'  
Track history (hours):
 
Tides and Currents Weather Stations Pressure Air Temp Water Temp Dewpoint Dewpoint Depression Visibility Wind Speed Wind Dir Waves Ship Positions

Silver Sailing

Last reported at 2018-Jun-16 11:18 UTC. Time now 2018-Jun-24 16:25 UTC.
Position N 34°24' E 134°14'.
Warning: this ship's position is 8 days out of date.

Length 110 m; draft 6.2 m.

Type: Cargo ship. MMSI: 477861300.

Date/timePositionNaut miles runAvg speedWind from/ knotsBaromVisibWave heightAir tempDewpointWater temp
2018-Jun-16 11:18N 34°24' E 134°14'411.5
2018-Jun-16 10:55N 34°24' E 134°19'410.0
2018-Jun-16 10:30N 34°25' E 134°24'510.0
2018-Jun-16 10:00N 34°28' E 134°29'5 9.9
2018-Jun-16 09:30N 34°29' E 134°35'5 9.9
2018-Jun-16 09:00N 34°31' E 134°40'5 9.6
2018-Jun-16 08:30N 34°33' E 134°46'5 8.6
2018-Jun-16 07:56N 34°35' E 134°51'3 7.3
2018-Jun-16 07:30N 34°36' E 134°55'4 7.1
2018-Jun-16 07:00N 34°37' E 134°59'3 5.0
2018-Jun-16 06:24N 34°37' E 135°02'2 5.2
2018-Jun-16 06:00N 34°35' E 135°04'4 7.7
2018-Jun-16 05:30N 34°32' E 135°05'5 9.7
2018-Jun-16 05:00N 34°27' E 135°03'5 9.1
2018-Jun-16 04:30N 34°23' E 135°01'4 8.7
2018-Jun-16 04:00N 34°19' E 134°59'4 8.0
2018-Jun-16 03:30N 34°15' E 134°59'4 8.1
2018-Jun-16 03:00N 34°12' E 135°03'5 9.4
2018-Jun-16 02:30N 34°10' E 135°08'3 6.1
2018-Jun-16 01:58N 34°09' E 135°12'0 0.1
2018-Jun-16 01:27N 34°09' E 135°12'0 0.0
2018-Jun-15 23:06N 34°09' E 135°12'0 0.0
2018-Jun-15 23:00N 34°09' E 135°12'0 0.0
2018-Jun-15 22:24N 34°09' E 135°12'0 0.0
2018-Jun-15 21:54N 34°09' E 135°12'0 0.0
2018-Jun-15 21:18N 34°09' E 135°12'0 0.0
2018-Jun-15 20:36N 34°09' E 135°12'0 0.0
2018-Jun-15 20:24N 34°09' E 135°12'0 0.0
2018-Jun-15 19:48N 34°09' E 135°12'0 0.0
2018-Jun-15 19:30N 34°09' E 135°12'0 0.0
2018-Jun-15 18:42N 34°09' E 135°12'0 0.0
2018-Jun-15 18:18N 34°09' E 135°12'0 0.0
2018-Jun-15 17:30N 34°09' E 135°12'0 0.0
2018-Jun-15 16:54N 34°09' E 135°12'0 0.0
2018-Jun-15 16:30N 34°09' E 135°12'0 0.0
2018-Jun-15 16:00N 34°09' E 135°12'0 0.0
2018-Jun-15 15:12N 34°09' E 135°12'0 0.0
2018-Jun-15 14:06N 34°09' E 135°12'0 0.0
2018-Jun-15 10:00N 34°09' E 135°12'0 0.0
2018-Jun-15 08:39N 34°09' E 135°12'0 0.0
2018-Jun-15 08:12N 34°09' E 135°12'0 0.0
2018-Jun-15 06:21N 34°09' E 135°12'0 0.0
2018-Jun-14 22:42N 34°09' E 135°12'0 0.0
2018-Jun-14 22:30N 34°09' E 135°12'0 0.0
2018-Jun-14 22:00N 34°09' E 135°12'0 0.0
2018-Jun-14 10:48N 34°09' E 135°12'0 0.0
2018-Jun-14 07:45N 34°09' E 135°12'0 0.0
2018-Jun-14 05:09N 34°09' E 135°12'0 0.0
2018-Jun-14 04:48N 34°09' E 135°12'0 0.0
2018-Jun-14 02:33N 34°09' E 135°12'0 0.0
2018-Jun-13 23:27N 34°09' E 135°12'0 0.0
2018-Jun-13 22:12N 34°09' E 135°12'0 0.0
2018-Jun-13 22:00N 34°09' E 135°12'0 0.0
2018-Jun-13 20:42N 34°09' E 135°12'0 0.0
2018-Jun-13 20:24N 34°09' E 135°12'0 0.0
2018-Jun-13 19:54N 34°09' E 135°12'0 0.0
2018-Jun-13 19:30N 34°09' E 135°12'0 0.0
2018-Jun-13 18:12N 34°09' E 135°12'0 0.0
2018-Jun-13 18:00N 34°09' E 135°12'0 0.0
2018-Jun-13 17:18N 34°09' E 135°12'0 0.0
2018-Jun-13 17:00N 34°09' E 135°12'0 0.0
2018-Jun-13 16:24N 34°09' E 135°12'0 0.0
2018-Jun-13 15:48N 34°09' E 135°12'0 0.0
2018-Jun-13 15:06N 34°09' E 135°12'0 0.0
2018-Jun-13 15:00N 34°09' E 135°12'0 0.0
2018-Jun-13 09:59N 34°09' E 135°12'0 0.2
2018-Jun-13 09:30N 34°09' E 135°11'1 1.8
2018-Jun-13 09:00N 34°09' E 135°10'3 6.4
2018-Jun-13 08:30N 34°11' E 135°07'4 7.3
2018-Jun-13 08:00N 34°14' E 135°05'2 4.3
2018-Jun-13 07:30N 34°14' E 135°08'0 0.0
2018-Jun-13 06:58N 34°14' E 135°08'0 0.0
2018-Jun-13 06:28N 34°14' E 135°08'0 0.0
2018-Jun-13 05:58N 34°14' E 135°08'0 0.0
2018-Jun-13 05:28N 34°14' E 135°08'0 0.0
2018-Jun-13 04:52N 34°14' E 135°08'0 0.0
2018-Jun-13 04:22N 34°14' E 135°08'0 0.0
2018-Jun-13 03:58N 34°14' E 135°08'0 0.0
2018-Jun-13 03:28N 34°14' E 135°08'0 0.0
2018-Jun-13 02:58N 34°14' E 135°08'0 0.0
2018-Jun-13 02:28N 34°14' E 135°08'0 0.0
2018-Jun-13 01:58N 34°14' E 135°08'0 0.0
2018-Jun-13 01:28N 34°14' E 135°08'0 0.0
2018-Jun-13 00:58N 34°14' E 135°08'0 0.0
2018-Jun-13 00:28N 34°14' E 135°08'0 0.0
2018-Jun-12 23:52N 34°14' E 135°08'0 0.0
2018-Jun-12 23:28N 34°14' E 135°08'0 0.0
2018-Jun-12 22:58N 34°14' E 135°08'0 0.0
2018-Jun-12 22:25N 34°14' E 135°08'0 0.0
2018-Jun-12 21:58N 34°14' E 135°08'0 0.0
2018-Jun-12 21:28N 34°14' E 135°08'0 0.0
2018-Jun-12 20:58N 34°14' E 135°08'0 0.0
2018-Jun-12 20:28N 34°14' E 135°08'0 0.0
2018-Jun-12 19:58N 34°14' E 135°08'0 0.0
2018-Jun-12 19:28N 34°14' E 135°08'0 0.0
2018-Jun-12 18:58N 34°14' E 135°08'0 0.0
2018-Jun-12 18:28N 34°14' E 135°08'0 0.0
2018-Jun-12 17:55N 34°14' E 135°08'0 0.0
2018-Jun-12 17:07N 34°14' E 135°08'0 0.0
2018-Jun-12 16:58N 34°14' E 135°08'0 0.0
2018-Jun-12 16:28N 34°14' E 135°08'0 0.0
2018-Jun-12 15:55N 34°14' E 135°08'0 0.0
2018-Jun-12 15:25N 34°14' E 135°08'0 0.0
2018-Jun-12 14:49N 34°14' E 135°08'0 0.0
2018-Jun-12 14:28N 34°14' E 135°08'0 0.0
2018-Jun-12 13:58N 34°14' E 135°08'0 0.0
2018-Jun-12 13:22N 34°14' E 135°08'0 0.0
2018-Jun-12 12:58N 34°14' E 135°08'0 0.0
2018-Jun-12 12:16N 34°14' E 135°08'0 0.0
2018-Jun-12 11:58N 34°14' E 135°08'0 0.0
2018-Jun-12 11:28N 34°14' E 135°08'0 0.0
2018-Jun-12 10:58N 34°14' E 135°08'0 0.0
2018-Jun-12 10:28N 34°14' E 135°08'0 0.0
2018-Jun-12 09:58N 34°14' E 135°08'0 0.0
2018-Jun-12 09:28N 34°14' E 135°08'0 0.0
2018-Jun-12 08:58N 34°14' E 135°08'0 0.0
2018-Jun-12 08:28N 34°14' E 135°08'0 0.0
2018-Jun-12 07:58N 34°14' E 135°08'0 0.0
2018-Jun-12 07:28N 34°14' E 135°08'0 0.0
2018-Jun-12 06:58N 34°14' E 135°08'0 0.0
2018-Jun-12 06:28N 34°14' E 135°08'0 0.0
2018-Jun-12 05:58N 34°14' E 135°08'0 0.0
2018-Jun-12 05:28N 34°14' E 135°08'0 0.0
2018-Jun-12 04:58N 34°14' E 135°08'0 0.0
2018-Jun-12 04:28N 34°14' E 135°08'0 0.0
2018-Jun-12 03:55N 34°14' E 135°08'0 0.0
2018-Jun-12 03:22N 34°14' E 135°08'0 0.0
2018-Jun-12 02:58N 34°14' E 135°08'0 0.0
2018-Jun-12 02:28N 34°14' E 135°08'0 0.0
2018-Jun-12 01:58N 34°14' E 135°08'0 0.0
2018-Jun-12 01:28N 34°14' E 135°08'0 0.0
2018-Jun-12 00:58N 34°14' E 135°08'0 0.0
2018-Jun-12 00:28N 34°14' E 135°08'0 0.0
2018-Jun-11 23:58N 34°14' E 135°08'0 0.0
2018-Jun-11 23:28N 34°14' E 135°08'0 0.0
2018-Jun-11 22:58N 34°14' E 135°08'0 0.0
2018-Jun-11 22:28N 34°14' E 135°08'0 0.0
2018-Jun-11 21:58N 34°14' E 135°08'0 0.0
2018-Jun-11 21:28N 34°14' E 135°08'0 0.0
2018-Jun-11 20:58N 34°14' E 135°08'0 0.0
2018-Jun-11 20:28N 34°14' E 135°08'0 0.0
2018-Jun-11 19:58N 34°14' E 135°08'0 0.0
2018-Jun-11 19:28N 34°14' E 135°08'0 0.0
2018-Jun-11 18:58N 34°14' E 135°08'0 0.0
2018-Jun-11 18:28N 34°14' E 135°08'0 0.0
2018-Jun-11 17:58N 34°14' E 135°08'0 0.0
2018-Jun-11 17:28N 34°14' E 135°08'0 0.0
2018-Jun-11 16:58N 34°14' E 135°08'0 0.0
2018-Jun-11 16:28N 34°14' E 135°08'0 0.0
2018-Jun-11 15:58N 34°14' E 135°08'0 0.0
2018-Jun-11 15:28N 34°14' E 135°08'0 0.0
2018-Jun-11 14:58N 34°14' E 135°08'0 0.0
2018-Jun-11 14:28N 34°14' E 135°08'0 0.0
2018-Jun-11 13:55N 34°14' E 135°08'0 0.0
2018-Jun-11 13:28N 34°14' E 135°08'0 0.0
2018-Jun-11 12:58N 34°14' E 135°08'0 0.0
2018-Jun-11 12:28N 34°14' E 135°08'0 0.0
2018-Jun-11 11:58N 34°14' E 135°08'0 0.0
2018-Jun-11 11:28N 34°14' E 135°08'0 0.0
2018-Jun-11 10:58N 34°14' E 135°08'0 0.0
2018-Jun-11 10:25N 34°14' E 135°08'0 0.0
2018-Jun-11 09:58N 34°14' E 135°08'0 0.0
2018-Jun-11 09:28N 34°14' E 135°08'0 0.0
2018-Jun-11 08:58N 34°14' E 135°08'0 0.0
2018-Jun-11 08:28N 34°14' E 135°08'0 0.0
2018-Jun-11 07:58N 34°14' E 135°08'0 0.0
2018-Jun-11 07:28N 34°14' E 135°08'0 0.0
2018-Jun-11 06:58N 34°14' E 135°08'0 0.0
2018-Jun-11 06:25N 34°14' E 135°08'0 0.0
2018-Jun-11 05:58N 34°14' E 135°08'0 0.0
2018-Jun-11 05:28N 34°14' E 135°08'0 0.0
2018-Jun-11 04:58N 34°14' E 135°08'0 0.0
2018-Jun-11 04:22N 34°14' E 135°08'0 0.0
2018-Jun-11 03:58N 34°14' E 135°08'0 0.0
2018-Jun-11 03:25N 34°14' E 135°08'0 0.0
2018-Jun-11 02:52N 34°14' E 135°08'0 0.0
2018-Jun-11 02:28N 34°14' E 135°08'0 0.0
2018-Jun-11 01:58N 34°14' E 135°08'0 0.0
2018-Jun-11 01:28N 34°14' E 135°08'0 0.0
2018-Jun-11 00:58N 34°14' E 135°08'0 0.0
2018-Jun-11 00:28N 34°14' E 135°08'0 0.0
2018-Jun-10 23:58N 34°14' E 135°08'0 0.0
2018-Jun-10 23:28N 34°14' E 135°08'0 0.0
2018-Jun-10 22:58N 34°14' E 135°08'0 0.0
2018-Jun-10 22:28N 34°14' E 135°08'0 0.0
2018-Jun-10 21:58N 34°14' E 135°08'0 0.0
2018-Jun-10 21:28N 34°14' E 135°08'0 0.0
2018-Jun-10 20:58N 34°14' E 135°08'0 0.0
2018-Jun-10 20:28N 34°14' E 135°08'0 0.0
2018-Jun-10 19:58N 34°14' E 135°08'0 0.0
2018-Jun-10 19:28N 34°14' E 135°08'0 0.0
2018-Jun-10 18:55N 34°14' E 135°08'0 0.0
2018-Jun-10 18:28N 34°14' E 135°08'0 0.0
2018-Jun-10 17:58N 34°14' E 135°08'0 0.0
2018-Jun-10 17:28N 34°14' E 135°08'0 0.0
2018-Jun-10 16:58N 34°14' E 135°08'0 0.0
2018-Jun-10 16:28N 34°14' E 135°08'0 0.0
2018-Jun-10 15:58N 34°14' E 135°08'0 0.0
2018-Jun-10 15:28N 34°14' E 135°08'0 0.0
2018-Jun-10 14:58N 34°14' E 135°08'0 0.0
2018-Jun-10 13:58N 34°14' E 135°08'0 0.0
2018-Jun-10 13:28N 34°14' E 135°08'0 0.0
2018-Jun-10 12:58N 34°14' E 135°08'0 0.0
2018-Jun-10 12:28N 34°14' E 135°08'0 0.0
2018-Jun-10 11:58N 34°14' E 135°08'0 0.0
2018-Jun-10 11:28N 34°14' E 135°08'0 0.0
2018-Jun-10 10:58N 34°14' E 135°08'0 0.0
2018-Jun-10 10:28N 34°14' E 135°08'0 0.0
2018-Jun-10 09:58N 34°14' E 135°08'0 0.0
2018-Jun-10 09:28N 34°14' E 135°08'0 0.0
2018-Jun-10 08:58N 34°14' E 135°08'0 0.0
2018-Jun-10 08:28N 34°14' E 135°08'0 0.0
2018-Jun-10 07:58N 34°14' E 135°08'0 0.0
2018-Jun-10 07:28N 34°14' E 135°08'0 0.0
2018-Jun-10 06:58N 34°14' E 135°08'0 0.0
2018-Jun-10 06:28N 34°14' E 135°08'0 0.0
2018-Jun-10 05:58N 34°14' E 135°08'0 0.0
2018-Jun-10 05:28N 34°14' E 135°08'0 0.0
2018-Jun-10 04:58N 34°14' E 135°08'0 0.0
2018-Jun-10 04:28N 34°14' E 135°08'0 0.0
2018-Jun-10 03:58N 34°14' E 135°08'0 0.0
2018-Jun-10 03:28N 34°14' E 135°08'0 0.0
2018-Jun-10 02:58N 34°14' E 135°08'0 0.0
2018-Jun-10 02:28N 34°14' E 135°08'0 0.0
2018-Jun-10 01:58N 34°14' E 135°08'0 0.0
2018-Jun-10 01:28N 34°14' E 135°08'0 0.0
2018-Jun-10 00:58N 34°14' E 135°08'0 0.0
2018-Jun-10 00:28N 34°14' E 135°08'0 0.0
2018-Jun-09 23:58N 34°14' E 135°08'0 0.0
2018-Jun-09 23:28N 34°14' E 135°08'0 0.0
2018-Jun-09 22:58N 34°14' E 135°08'0 0.0
2018-Jun-09 22:28N 34°14' E 135°08'0 0.0
2018-Jun-09 21:58N 34°14' E 135°08'0 0.0
2018-Jun-09 21:28N 34°14' E 135°08'0 0.0
2018-Jun-09 20:58N 34°14' E 135°08'0 0.0
2018-Jun-09 20:28N 34°14' E 135°08'0 0.0
2018-Jun-09 19:58N 34°14' E 135°08'0 0.0
2018-Jun-09 19:28N 34°14' E 135°08'0 0.0
2018-Jun-09 18:58N 34°14' E 135°08'0 0.0
2018-Jun-09 18:28N 34°14' E 135°08'0 0.0
2018-Jun-09 17:58N 34°14' E 135°08'0 0.0
2018-Jun-09 17:28N 34°14' E 135°08'0 0.0
2018-Jun-09 16:58N 34°14' E 135°08'0 0.0
2018-Jun-09 16:28N 34°14' E 135°08'0 0.0
2018-Jun-09 15:58N 34°14' E 135°08'0 0.0
2018-Jun-09 14:58N 34°14' E 135°08'0 0.0
2018-Jun-09 14:28N 34°14' E 135°08'0 0.0
2018-Jun-09 13:58N 34°14' E 135°08'0 0.0
2018-Jun-09 13:28N 34°14' E 135°08'0 0.0
2018-Jun-09 12:55N 34°14' E 135°08'0 0.0
2018-Jun-09 12:28N 34°14' E 135°08'0 0.0
2018-Jun-09 11:58N 34°14' E 135°08'0 0.0
2018-Jun-09 11:28N 34°14' E 135°08'0 0.0
2018-Jun-09 10:52N 34°14' E 135°08'0 0.0
2018-Jun-09 10:28N 34°14' E 135°08'0 0.0
2018-Jun-09 09:52N 34°14' E 135°08'0 0.0
2018-Jun-09 09:28N 34°14' E 135°08'0 0.0
2018-Jun-09 08:58N 34°14' E 135°08'0 0.0
2018-Jun-09 08:28N 34°14' E 135°08'0 0.0
2018-Jun-09 07:58N 34°14' E 135°08'0 0.0
2018-Jun-09 07:10N 34°14' E 135°08'0 0.0
2018-Jun-09 06:58N 34°14' E 135°08'0 0.0
2018-Jun-09 06:22N 34°14' E 135°08'0 0.0
2018-Jun-09 05:58N 34°14' E 135°08'0 0.0
2018-Jun-09 05:16N 34°14' E 135°08'0 0.0
2018-Jun-09 04:55N 34°14' E 135°08'0 0.0
2018-Jun-09 04:25N 34°14' E 135°08'0 0.0
2018-Jun-09 03:58N 34°14' E 135°08'0 0.0
2018-Jun-09 03:28N 34°14' E 135°08'0 0.0
2018-Jun-09 02:58N 34°14' E 135°08'0 0.0
2018-Jun-09 02:22N 34°14' E 135°08'0 0.0
2018-Jun-09 01:55N 34°14' E 135°08'0 0.0
2018-Jun-09 01:28N 34°14' E 135°08'0 0.0
2018-Jun-09 00:58N 34°14' E 135°08'0 0.0
2018-Jun-09 00:28N 34°14' E 135°08'0 0.0
2018-Jun-08 23:58N 34°14' E 135°08'0 0.0
2018-Jun-08 23:28N 34°14' E 135°08'0 0.0
2018-Jun-08 22:58N 34°14' E 135°08'0 0.0
2018-Jun-08 22:28N 34°14' E 135°08'0 0.0
2018-Jun-08 21:58N 34°14' E 135°08'0 0.0
2018-Jun-08 21:28N 34°14' E 135°08'0 0.0
2018-Jun-08 20:55N 34°14' E 135°08'0 0.0
2018-Jun-08 20:28N 34°14' E 135°08'0 0.0
2018-Jun-08 19:58N 34°14' E 135°08'0 0.0
2018-Jun-08 19:28N 34°14' E 135°08'0 0.0
2018-Jun-08 18:28N 34°14' E 135°08'0 0.0
2018-Jun-08 17:46N 34°14' E 135°08'0 0.0
2018-Jun-08 17:22N 34°14' E 135°08'0 0.0
2018-Jun-08 16:58N 34°14' E 135°08'0 0.0
2018-Jun-08 16:28N 34°14' E 135°08'0 0.0
2018-Jun-08 15:52N 34°14' E 135°08'0 0.0
2018-Jun-08 15:28N 34°14' E 135°08'0 0.0
2018-Jun-08 14:58N 34°14' E 135°08'0 0.0
2018-Jun-08 14:25N 34°14' E 135°08'0 0.0
2018-Jun-08 13:58N 34°14' E 135°08'0 0.0
2018-Jun-08 13:28N 34°14' E 135°08'0 0.0
2018-Jun-08 12:55N 34°14' E 135°08'0 0.0
2018-Jun-08 12:28N 34°14' E 135°08'0 0.0
2018-Jun-08 11:58N 34°14' E 135°08'0 0.0
2018-Jun-08 11:28N 34°14' E 135°08'0 0.0
2018-Jun-08 10:58N 34°14' E 135°08'0 0.0
2018-Jun-08 10:28N 34°14' E 135°08'0 0.0
2018-Jun-08 09:58N 34°14' E 135°08'0 0.0
2018-Jun-08 09:28N 34°14' E 135°08'0 0.0
2018-Jun-08 08:58N 34°14' E 135°08'0 0.0
2018-Jun-08 08:28N 34°14' E 135°08'0 0.0
2018-Jun-08 07:58N 34°14' E 135°08'0 0.0
2018-Jun-08 07:28N 34°14' E 135°08'0 0.0
2018-Jun-08 06:58N 34°14' E 135°08'0 0.0
2018-Jun-08 06:28N 34°14' E 135°08'0 0.0
2018-Jun-08 05:58N 34°14' E 135°08'0 0.0
2018-Jun-08 05:28N 34°14' E 135°08'0 0.0
2018-Jun-08 04:58N 34°14' E 135°08'0 0.0
2018-Jun-08 04:28N 34°14' E 135°08'0 0.0
2018-Jun-08 03:58N 34°14' E 135°08'0 0.0
2018-Jun-08 03:25N 34°14' E 135°08'0 0.0
2018-Jun-08 02:55N 34°14' E 135°08'0 0.0
2018-Jun-08 02:28N 34°14' E 135°08'0 0.0
2018-Jun-08 01:58N 34°14' E 135°08'0 0.0
2018-Jun-08 01:28N 34°14' E 135°08'0 0.0
2018-Jun-08 00:58N 34°14' E 135°08'0 0.0
2018-Jun-08 00:28N 34°14' E 135°08'0 0.0
2018-Jun-07 23:58N 34°14' E 135°08'0 0.0
2018-Jun-07 23:28N 34°14' E 135°08'0 0.0
2018-Jun-07 22:58N 34°14' E 135°08'0 0.0
2018-Jun-07 22:28N 34°14' E 135°08'0 0.0
2018-Jun-07 21:58N 34°14' E 135°08'0 0.0
2018-Jun-07 21:28N 34°14' E 135°08'0 0.0
2018-Jun-07 20:58N 34°14' E 135°08'0 0.0
2018-Jun-07 20:28N 34°14' E 135°08'0 0.0
2018-Jun-07 19:58N 34°14' E 135°08'0 0.0
2018-Jun-07 19:28N 34°14' E 135°08'0 0.0
2018-Jun-07 18:58N 34°14' E 135°08'0 0.0
2018-Jun-07 18:28N 34°14' E 135°08'0 0.0
2018-Jun-07 17:58N 34°14' E 135°08'0 0.0
2018-Jun-07 17:28N 34°14' E 135°08'0 0.0
2018-Jun-07 16:58N 34°14' E 135°08'0 0.0
2018-Jun-07 16:28N 34°14' E 135°08'0 0.0
2018-Jun-07 15:58N 34°14' E 135°08'0 0.0
2018-Jun-07 15:28N 34°14' E 135°08'0 0.0
2018-Jun-07 14:58N 34°14' E 135°08'0 0.0
2018-Jun-07 14:28N 34°14' E 135°08'0 0.0
2018-Jun-07 13:58N 34°14' E 135°08'0 0.0
2018-Jun-07 13:28N 34°14' E 135°08'0 0.0
2018-Jun-07 12:58N 34°14' E 135°08'0 0.0
2018-Jun-07 12:28N 34°14' E 135°08'0 0.0
2018-Jun-07 11:58N 34°14' E 135°08'0 0.0
2018-Jun-07 11:28N 34°14' E 135°08'0 0.0
2018-Jun-07 10:58N 34°14' E 135°08'0 0.0
2018-Jun-07 10:28N 34°14' E 135°08'0 0.0
2018-Jun-07 09:58N 34°14' E 135°08'0 0.0
2018-Jun-07 09:28N 34°14' E 135°08'0 0.0
2018-Jun-07 08:58N 34°14' E 135°08'0 0.0
2018-Jun-07 08:28N 34°14' E 135°08'0 0.0
2018-Jun-07 07:58N 34°14' E 135°08'0 0.0
2018-Jun-07 07:28N 34°14' E 135°08'0 0.0
2018-Jun-07 06:58N 34°14' E 135°08'0 0.0
2018-Jun-07 06:28N 34°14' E 135°08'0 0.0
2018-Jun-07 05:58N 34°14' E 135°08'0 0.0
2018-Jun-07 05:28N 34°14' E 135°08'0 0.0
2018-Jun-07 04:58N 34°14' E 135°08'0 0.0
2018-Jun-07 04:28N 34°14' E 135°08'0 0.0
2018-Jun-07 03:58N 34°14' E 135°08'0 0.0
2018-Jun-07 03:28N 34°14' E 135°08'0 0.0
2018-Jun-07 02:58N 34°14' E 135°08'0 0.0
2018-Jun-07 02:28N 34°14' E 135°08'0 0.0
2018-Jun-07 01:58N 34°14' E 135°08'0 0.0
2018-Jun-07 01:28N 34°14' E 135°08'0 0.0
2018-Jun-07 00:58N 34°14' E 135°08'0 0.0
2018-Jun-07 00:28N 34°14' E 135°08'0 0.0
2018-Jun-06 23:58N 34°14' E 135°08'0 0.0
2018-Jun-06 23:28N 34°14' E 135°08'0 0.0
2018-Jun-06 22:58N 34°14' E 135°08'0 0.0
2018-Jun-06 22:22N 34°14' E 135°08'0 0.0
2018-Jun-06 21:58N 34°14' E 135°08'0 0.0
2018-Jun-06 21:28N 34°14' E 135°08'0 0.0
2018-Jun-06 20:58N 34°14' E 135°08'0 0.0
2018-Jun-06 20:28N 34°14' E 135°08'0 0.0
2018-Jun-06 19:58N 34°14' E 135°08'0 0.0
2018-Jun-06 19:28N 34°14' E 135°08'0 0.0
2018-Jun-06 18:58N 34°14' E 135°08'0 0.0
2018-Jun-06 18:28N 34°14' E 135°08'0 0.0
2018-Jun-06 17:58N 34°14' E 135°08'0 0.0
2018-Jun-06 17:28N 34°14' E 135°08'0 0.0
2018-Jun-06 16:58N 34°14' E 135°08'0 0.0
2018-Jun-06 16:28N 34°14' E 135°08'0 0.0
2018-Jun-06 15:58N 34°14' E 135°08'0 0.0
2018-Jun-06 15:28N 34°14' E 135°08'0 0.0
2018-Jun-06 14:58N 34°14' E 135°08'0 0.0
2018-Jun-06 14:28N 34°14' E 135°08'0 0.0
2018-Jun-06 13:58N 34°14' E 135°08'0 0.0
2018-Jun-06 13:28N 34°14' E 135°08'0 0.0
2018-Jun-06 12:58N 34°14' E 135°08'0 0.0
2018-Jun-06 12:28N 34°14' E 135°08'0 0.0
2018-Jun-06 11:58N 34°14' E 135°08'0 0.0
2018-Jun-06 11:28N 34°14' E 135°08'  

Dump ship's entire track history